金門航空站 - ATIS

METAR RCBS 200630Z 03020KT 9999 FEW018 BKN120 18/09 Q1019 NOSIG RMK A3010(W)=

站台狀態:Online
最後更新:2022-01-20 22:30:01